createdAt,value
2022-10-18T00:01:10.677Z,81.91
2022-10-18T00:03:39.749Z,81.54
2022-10-18T00:06:09.169Z,81.77
2022-10-18T00:08:38.553Z,82.08
2022-10-18T00:11:07.708Z,82.37
2022-10-18T00:13:36.175Z,82.40
2022-10-18T00:16:12.725Z,82.58
2022-10-18T00:18:41.353Z,82.74
2022-10-18T00:21:13.776Z,82.74
2022-10-18T00:23:42.105Z,82.66
2022-10-18T00:26:14.820Z,82.72
2022-10-18T00:28:44.159Z,82.70
2022-10-18T00:31:20.718Z,82.67
2022-10-18T00:33:52.738Z,82.71
2022-10-18T00:36:21.921Z,81.71
2022-10-18T00:38:51.231Z,81.21
2022-10-18T00:41:23.607Z,80.04
2022-10-18T00:43:58.697Z,79.52
2022-10-18T00:46:30.837Z,79.56
2022-10-18T00:49:03.871Z,79.84
2022-10-18T00:51:38.462Z,80.15
2022-10-18T00:54:06.748Z,80.15
2022-10-18T00:56:35.828Z,80.24
2022-10-18T00:59:04.414Z,80.44
2022-10-18T01:01:33.802Z,80.24
2022-10-18T01:04:02.350Z,80.50
2022-10-18T01:06:30.965Z,80.65
2022-10-18T01:09:13.112Z,80.63
2022-10-18T01:12:11.637Z,80.37
2022-10-18T01:14:52.043Z,80.45
2022-10-18T01:17:32.351Z,80.40
2022-10-18T01:20:59.235Z,80.44
2022-10-18T01:24:09.203Z,80.67
2022-10-18T01:27:09.420Z,80.90
2022-10-18T01:29:56.590Z,81.18
2022-10-18T01:32:33.779Z,80.92
2022-10-18T01:35:10.462Z,80.97
2022-10-18T01:37:40.624Z,80.97
2022-10-18T01:40:13.902Z,81.09
2022-10-18T01:42:43.051Z,81.01
2022-10-18T01:45:15.030Z,80.93
2022-10-18T01:47:47.802Z,80.48
2022-10-18T01:50:16.595Z,80.42
2022-10-18T01:52:51.143Z,80.56
2022-10-18T01:55:28.073Z,80.64
2022-10-18T01:58:07.408Z,80.06
2022-10-18T02:00:42.794Z,80.17
2022-10-18T02:03:22.046Z,80.18
2022-10-18T02:05:58.546Z,79.98
2022-10-18T02:08:35.686Z,79.93
2022-10-18T02:11:07.809Z,79.95
2022-10-18T02:13:41.789Z,79.84
2022-10-18T02:16:14.902Z,79.86
2022-10-18T02:18:51.161Z,79.86
2022-10-18T02:21:23.603Z,79.65
2022-10-18T02:23:53.123Z,80.00
2022-10-18T02:26:21.284Z,79.56
2022-10-18T02:28:49.652Z,79.49
2022-10-18T02:31:27.040Z,79.66
2022-10-18T02:34:04.366Z,79.88
2022-10-18T02:36:39.159Z,79.67
2022-10-18T02:39:14.913Z,79.74
2022-10-18T02:41:43.876Z,79.79
2022-10-18T02:44:12.369Z,79.93
2022-10-18T02:46:41.022Z,80.31
2022-10-18T02:49:10.315Z,80.46
2022-10-18T02:51:38.401Z,80.30
2022-10-18T02:54:08.333Z,80.10
2022-10-18T02:56:37.173Z,80.42
2022-10-18T02:59:07.274Z,80.60
2022-10-18T03:01:36.132Z,80.32
2022-10-18T03:04:04.668Z,80.40
2022-10-18T03:06:34.918Z,80.28
2022-10-18T03:09:04.661Z,80.01
2022-10-18T03:11:33.480Z,80.11
2022-10-18T03:14:01.473Z,79.98
2022-10-18T03:16:29.533Z,80.03
2022-10-18T03:18:57.572Z,79.88
2022-10-18T03:21:25.577Z,79.84
2022-10-18T03:23:54.931Z,79.70
2022-10-18T03:26:22.922Z,79.75
2022-10-18T03:28:50.954Z,79.86
2022-10-18T03:31:19.002Z,79.86
2022-10-18T03:33:47.669Z,79.83
2022-10-18T03:36:16.091Z,79.95
2022-10-18T03:38:44.233Z,79.97
2022-10-18T03:41:13.668Z,79.91
2022-10-18T03:43:41.724Z,79.94
2022-10-18T03:46:09.867Z,79.88
2022-10-18T03:48:37.876Z,79.84
2022-10-18T03:51:06.382Z,80.05
2022-10-18T03:53:34.400Z,79.60
2022-10-18T03:56:02.447Z,79.40
2022-10-18T03:58:31.835Z,79.29
2022-10-18T04:00:59.798Z,79.70
2022-10-18T04:03:28.027Z,79.65
2022-10-18T04:05:56.878Z,79.71
2022-10-18T04:08:24.841Z,79.54
2022-10-18T04:10:52.917Z,79.38
2022-10-18T04:13:21.042Z,79.48
2022-10-18T04:15:50.366Z,79.31
2022-10-18T04:18:18.498Z,78.85
2022-10-18T04:20:46.485Z,79.02
2022-10-18T04:23:14.518Z,79.15
2022-10-18T04:28:11.447Z,79.57
2022-10-18T04:30:39.441Z,79.55
2022-10-18T04:33:08.873Z,79.35
2022-10-18T04:35:37.747Z,79.37
2022-10-18T04:38:05.784Z,79.65
2022-10-18T04:40:33.744Z,79.71
2022-10-18T04:43:01.730Z,79.56
2022-10-18T04:45:29.798Z,79.29
2022-10-18T04:47:57.830Z,79.04
2022-10-18T04:50:27.216Z,79.03
2022-10-18T04:52:55.262Z,79.19
2022-10-18T04:55:23.331Z,79.37
2022-10-18T04:57:51.359Z,79.56
2022-10-18T05:00:19.503Z,79.58
2022-10-18T05:02:47.544Z,79.77
2022-10-18T05:05:15.821Z,80.08
2022-10-18T05:07:45.162Z,79.91
2022-10-18T05:10:13.089Z,79.61
2022-10-18T05:12:41.065Z,79.66
2022-10-18T05:15:10.177Z,79.91
2022-10-18T05:17:38.289Z,80.01
2022-10-18T05:20:07.635Z,80.12
2022-10-18T05:22:35.683Z,80.09
2022-10-18T05:25:05.697Z,80.00
2022-10-18T05:27:33.667Z,80.13
2022-10-18T05:30:04.702Z,80.20
2022-10-18T05:32:34.052Z,79.98
2022-10-18T05:35:02.364Z,80.15
2022-10-18T05:37:30.352Z,80.40
2022-10-18T05:39:58.357Z,80.43
2022-10-18T05:42:27.667Z,80.31
2022-10-18T05:44:55.643Z,80.37
2022-10-18T05:47:23.638Z,80.44
2022-10-18T05:49:51.590Z,80.36
2022-10-18T05:52:19.579Z,80.56
2022-10-18T05:54:47.597Z,80.86
2022-10-18T05:57:15.542Z,81.08
2022-10-18T05:59:45.518Z,81.49
2022-10-18T06:02:13.984Z,81.83
2022-10-18T06:04:42.002Z,81.75
2022-10-18T06:07:11.216Z,81.38
2022-10-18T06:09:39.740Z,80.78
2022-10-18T06:12:08.926Z,80.52
2022-10-18T06:14:37.269Z,80.78
2022-10-18T06:17:06.651Z,81.12
2022-10-18T06:19:34.643Z,81.32
2022-10-18T06:22:02.575Z,81.37
2022-10-18T06:24:30.554Z,81.17
2022-10-18T06:26:58.854Z,81.13
2022-10-18T06:29:26.850Z,81.05
2022-10-18T06:31:54.844Z,81.40
2022-10-18T06:34:24.260Z,81.39
2022-10-18T06:36:56.422Z,81.31
2022-10-18T06:39:26.461Z,81.32
2022-10-18T06:41:54.797Z,81.31
2022-10-18T06:44:22.938Z,81.46
2022-10-18T06:46:51.607Z,81.79
2022-10-18T06:49:19.587Z,81.93
2022-10-18T06:51:48.869Z,81.73
2022-10-18T06:54:18.616Z,81.01
2022-10-18T06:56:47.044Z,81.14
2022-10-18T06:59:15.414Z,81.44
2022-10-18T07:01:43.773Z,81.68
2022-10-18T07:04:11.982Z,81.80
2022-10-18T07:06:40.006Z,82.25
2022-10-18T07:09:09.366Z,82.37
2022-10-18T07:11:37.325Z,80.48
2022-10-18T07:14:05.385Z,81.47
2022-10-18T07:16:34.639Z,81.31
2022-10-18T07:19:02.688Z,82.10
2022-10-18T07:21:31.414Z,81.36
2022-10-18T07:23:59.561Z,80.94
2022-10-18T07:26:31.799Z,81.74
2022-10-18T07:29:02.399Z,82.39
2022-10-18T07:31:31.163Z,81.82
2022-10-18T07:33:59.155Z,82.06
2022-10-18T07:36:27.418Z,81.57
2022-10-18T07:38:55.581Z,82.52
2022-10-18T07:41:24.473Z,82.70
2022-10-18T07:43:54.750Z,82.82
2022-10-18T07:46:23.716Z,82.91
2022-10-18T07:48:52.657Z,81.84
2022-10-18T07:51:23.695Z,81.67
2022-10-18T07:53:51.699Z,82.94
2022-10-18T07:56:22.107Z,82.84
2022-10-18T07:58:53.917Z,83.62
2022-10-18T08:01:23.673Z,85.02
2022-10-18T08:03:54.576Z,86.21
2022-10-18T08:06:24.443Z,87.57
2022-10-18T08:08:53.250Z,88.01
2022-10-18T08:11:23.771Z,88.85
2022-10-18T08:13:54.411Z,89.57
2022-10-18T08:16:25.463Z,90.34
2022-10-18T08:18:53.814Z,90.74
2022-10-18T08:21:23.059Z,91.18
2022-10-18T08:23:51.540Z,91.84
2022-10-18T08:26:23.039Z,92.32
2022-10-18T08:28:58.271Z,92.99
2022-10-18T08:31:32.116Z,93.06
2022-10-18T08:34:00.117Z,93.23
2022-10-18T08:36:28.206Z,93.15
2022-10-18T08:38:56.187Z,93.22
2022-10-18T08:41:53.637Z,93.03
2022-10-18T08:44:27.687Z,92.90
2022-10-18T08:47:03.657Z,93.55
2022-10-18T08:49:45.565Z,94.30
2022-10-18T08:52:24.919Z,93.97
2022-10-18T08:55:02.546Z,94.15
2022-10-18T08:57:33.235Z,95.27
2022-10-18T09:00:04.035Z,95.92
2022-10-18T09:02:47.337Z,96.12
2022-10-18T09:05:29.257Z,95.63
2022-10-18T09:08:39.926Z,95.40
2022-10-18T09:11:25.536Z,95.88
2022-10-18T09:14:38.726Z,96.35
2022-10-18T09:17:21.929Z,96.26
2022-10-18T09:20:11.981Z,95.69
2022-10-18T09:22:57.796Z,95.50
2022-10-18T09:25:36.355Z,96.17
2022-10-18T09:28:22.699Z,96.57
2022-10-18T09:31:01.528Z,96.48
2022-10-18T09:33:47.698Z,96.04
2022-10-18T09:36:22.755Z,95.87
2022-10-18T09:38:59.858Z,95.24
2022-10-18T09:41:36.146Z,94.60
2022-10-18T09:44:15.030Z,94.40
2022-10-18T09:46:50.666Z,93.47
2022-10-18T09:49:26.500Z,92.86
2022-10-18T09:51:56.386Z,92.63
2022-10-18T09:54:34.895Z,91.96
2022-10-18T09:57:10.886Z,91.53
2022-10-18T09:59:43.670Z,90.59
2022-10-18T10:02:16.764Z,89.81
2022-10-18T10:04:46.488Z,90.41
2022-10-18T10:07:18.563Z,89.59
2022-10-18T10:09:49.179Z,89.04
2022-10-18T10:12:33.292Z,89.63
2022-10-18T10:15:19.785Z,90.54
2022-10-18T10:17:58.609Z,90.85
2022-10-18T10:20:36.615Z,91.51
2022-10-18T10:23:14.821Z,91.55
2022-10-18T10:25:44.226Z,91.28
2022-10-18T10:28:19.347Z,91.28
2022-10-18T10:30:47.228Z,91.37
2022-10-18T10:33:34.213Z,91.05
2022-10-18T10:36:06.881Z,88.42
2022-10-18T10:38:34.808Z,85.30
2022-10-18T10:41:02.883Z,84.00
2022-10-18T10:43:38.829Z,84.21
2022-10-18T10:46:10.972Z,84.92
2022-10-18T10:48:50.315Z,84.83
2022-10-18T10:51:30.510Z,84.92
2022-10-18T10:54:04.224Z,82.68
2022-10-18T10:56:36.884Z,82.73
2022-10-18T10:59:16.556Z,82.20
2022-10-18T11:01:45.178Z,82.33
2022-10-18T11:04:29.302Z,82.96
2022-10-18T11:07:20.814Z,83.79
2022-10-18T11:10:03.495Z,83.04
2022-10-18T11:12:40.196Z,83.73
2022-10-18T11:15:20.780Z,83.31
2022-10-18T11:18:03.402Z,81.44
2022-10-18T11:20:38.424Z,80.74
2022-10-18T11:23:12.775Z,80.85
2022-10-18T11:26:05.044Z,81.49
2022-10-18T11:28:57.838Z,82.02
2022-10-18T11:31:33.731Z,82.25
2022-10-18T11:34:26.789Z,82.71
2022-10-18T11:37:27.006Z,82.85
2022-10-18T11:40:10.107Z,83.01
2022-10-18T11:42:54.534Z,82.43
2022-10-18T11:45:38.212Z,82.79
2022-10-18T11:48:24.109Z,82.84
2022-10-18T11:51:02.153Z,83.27
2022-10-18T11:53:40.711Z,82.90
2022-10-18T11:56:22.556Z,83.08
2022-10-18T11:59:27.474Z,83.57
2022-10-18T12:02:27.101Z,83.99
2022-10-18T12:05:22.598Z,83.82
2022-10-18T12:08:01.288Z,84.39
2022-10-18T12:10:52.732Z,85.47
2022-10-18T12:13:34.359Z,86.38
2022-10-18T12:16:06.159Z,86.89
2022-10-18T12:18:36.960Z,87.36
2022-10-18T12:21:07.748Z,87.86
2022-10-18T12:23:48.031Z,88.21
2022-10-18T12:26:17.923Z,88.46
2022-10-18T12:29:01.518Z,88.52
2022-10-18T12:31:38.984Z,88.59
2022-10-18T12:34:27.966Z,88.38
2022-10-18T12:37:35.034Z,88.22
2022-10-18T12:40:13.422Z,88.39
2022-10-18T12:42:46.156Z,88.72
2022-10-18T12:45:34.169Z,88.82
2022-10-18T12:48:06.048Z,88.54
2022-10-18T12:50:37.950Z,88.28
2022-10-18T12:53:18.553Z,87.87
2022-10-18T12:55:49.185Z,87.46
2022-10-18T12:58:34.793Z,87.18
2022-10-18T13:01:08.520Z,84.35
2022-10-18T13:03:54.538Z,84.09
2022-10-18T13:06:24.482Z,84.47
2022-10-18T13:09:20.850Z,80.60
2022-10-18T13:11:49.508Z,80.77
2022-10-18T13:14:49.383Z,80.95
2022-10-18T13:17:39.151Z,79.28
2022-10-18T13:20:27.977Z,79.42
2022-10-18T13:23:23.824Z,80.14
2022-10-18T13:26:12.813Z,80.69
2022-10-18T13:28:53.926Z,80.62
2022-10-18T13:31:30.330Z,81.49
2022-10-18T13:34:24.419Z,81.31
2022-10-18T13:37:00.079Z,80.74
2022-10-18T13:39:29.521Z,81.79
2022-10-18T13:42:33.114Z,81.10
2022-10-18T13:45:54.092Z,81.41
2022-10-18T13:48:50.961Z,81.84
2022-10-18T13:51:54.903Z,81.61
2022-10-18T13:54:47.883Z,82.01
2022-10-18T13:57:41.495Z,81.29
2022-10-18T14:00:54.478Z,80.89
2022-10-18T14:04:07.908Z,80.67
2022-10-18T14:06:41.418Z,80.41
2022-10-18T14:09:26.481Z,80.71
2022-10-18T14:12:22.269Z,80.08
2022-10-18T14:14:58.985Z,78.48
2022-10-18T14:20:28.598Z,81.08
2022-10-18T14:23:09.336Z,81.54
2022-10-18T14:25:39.982Z,81.13
2022-10-18T14:28:14.754Z,81.47
2022-10-18T14:30:55.702Z,81.57
2022-10-18T14:33:35.453Z,82.19
2022-10-18T14:36:13.070Z,82.58
2022-10-18T14:38:52.565Z,83.38
2022-10-18T14:41:26.643Z,83.34
2022-10-18T14:44:18.402Z,83.40
2022-10-18T14:46:49.542Z,83.82
2022-10-18T14:49:19.843Z,83.96
2022-10-18T14:51:52.725Z,84.13
2022-10-18T14:54:29.148Z,84.78
2022-10-18T14:57:02.912Z,84.88
2022-10-18T14:59:35.620Z,85.04
2022-10-18T15:02:13.679Z,85.37
2022-10-18T15:04:45.482Z,85.91
2022-10-18T15:07:18.250Z,86.45
2022-10-18T15:09:48.433Z,86.79
2022-10-18T15:12:19.157Z,87.42
2022-10-18T15:14:48.842Z,87.55
2022-10-18T15:17:23.287Z,88.13
2022-10-18T15:20:00.567Z,88.62
2022-10-18T15:22:33.858Z,88.89
2022-10-18T15:25:16.299Z,88.59
2022-10-18T15:27:50.174Z,89.00
2022-10-18T15:30:25.479Z,89.46
2022-10-18T15:32:56.619Z,90.12
2022-10-18T15:35:29.136Z,90.63
2022-10-18T15:38:00.233Z,91.03
2022-10-18T15:40:40.314Z,91.35
2022-10-18T15:43:37.838Z,91.51
2022-10-18T15:46:07.427Z,91.78
2022-10-18T15:48:38.883Z,91.95
2022-10-18T15:51:09.773Z,92.26
2022-10-18T15:53:46.650Z,92.42
2022-10-18T15:56:32.441Z,92.58
2022-10-18T15:59:04.840Z,92.90
2022-10-18T16:01:45.302Z,93.24
2022-10-18T16:04:20.885Z,93.41
2022-10-18T16:06:48.813Z,93.56
2022-10-18T16:09:20.043Z,93.94
2022-10-18T16:11:55.606Z,94.35
2022-10-18T16:14:27.771Z,94.69
2022-10-18T16:17:01.763Z,95.26
2022-10-18T16:19:29.980Z,95.64
2022-10-18T16:22:01.102Z,96.30
2022-10-18T16:24:31.742Z,96.76
2022-10-18T16:26:59.658Z,97.43
2022-10-18T16:29:31.997Z,97.96
2022-10-18T16:32:01.324Z,98.28
2022-10-18T16:34:29.568Z,98.44
2022-10-18T16:36:57.468Z,98.77
2022-10-18T16:39:25.621Z,99.14
2022-10-18T16:41:53.715Z,99.38
2022-10-18T16:44:21.725Z,99.71
2022-10-18T16:46:53.877Z,99.97
2022-10-18T16:49:26.663Z,100.00
2022-10-18T16:51:55.941Z,100.00
2022-10-18T16:54:24.429Z,100.00
2022-10-18T16:56:52.420Z,100.00
2022-10-18T16:59:27.430Z,100.00
2022-10-18T17:01:56.830Z,100.00
2022-10-18T17:04:24.828Z,100.00
2022-10-18T17:06:55.305Z,100.00
2022-10-18T17:09:23.211Z,100.00
2022-10-18T17:11:51.357Z,100.00
2022-10-18T17:14:19.252Z,100.00
2022-10-18T17:16:50.816Z,100.00
2022-10-18T17:19:24.144Z,100.00
2022-10-18T17:21:52.058Z,100.00
2022-10-18T17:24:19.972Z,100.00
2022-10-18T17:26:47.933Z,100.00
2022-10-18T17:29:15.947Z,100.00
2022-10-18T17:31:44.124Z,100.00
2022-10-18T17:34:12.028Z,100.00
2022-10-18T17:36:41.304Z,100.00
2022-10-18T17:39:10.341Z,100.00
2022-10-18T17:41:38.447Z,100.00
2022-10-18T17:44:06.962Z,100.00
2022-10-18T17:46:34.895Z,100.00
2022-10-18T17:49:02.889Z,100.00
2022-10-18T17:51:30.835Z,100.00
2022-10-18T17:54:00.174Z,100.00
2022-10-18T17:56:32.843Z,100.00
2022-10-18T17:59:00.965Z,100.00
2022-10-18T18:01:29.281Z,100.00
2022-10-18T18:03:58.241Z,100.00
2022-10-18T18:06:31.164Z,100.00
2022-10-18T18:09:04.717Z,100.00
2022-10-18T18:11:32.705Z,100.00
2022-10-18T18:14:01.199Z,100.00
2022-10-18T18:16:30.959Z,100.00
2022-10-18T18:18:59.897Z,100.00
2022-10-18T18:21:28.772Z,100.00
2022-10-18T18:23:57.412Z,100.00
2022-10-18T18:26:27.553Z,100.00
2022-10-18T18:28:55.600Z,100.00
2022-10-18T18:31:25.699Z,100.00
2022-10-18T18:33:56.297Z,100.00
2022-10-18T18:36:28.816Z,100.00
2022-10-18T18:38:57.958Z,100.00
2022-10-18T18:41:29.758Z,100.00
2022-10-18T18:44:00.378Z,100.00
2022-10-18T18:46:33.371Z,100.00
2022-10-18T18:49:02.132Z,100.00
2022-10-18T18:51:30.432Z,100.00
2022-10-18T18:53:58.754Z,100.00
2022-10-18T18:56:29.798Z,100.00
2022-10-18T18:59:00.257Z,100.00
2022-10-18T19:01:31.150Z,100.00
2022-10-18T19:04:00.554Z,100.00
2022-10-18T19:06:31.802Z,100.00
2022-10-18T19:09:03.733Z,100.00
2022-10-18T19:11:37.706Z,100.00
2022-10-18T19:14:07.842Z,100.00
2022-10-18T19:16:38.257Z,100.00
2022-10-18T19:19:09.036Z,100.00
2022-10-18T19:21:40.410Z,100.00
2022-10-18T19:24:09.124Z,100.00
2022-10-18T19:26:44.527Z,100.00
2022-10-18T19:29:15.892Z,100.00
2022-10-18T19:31:45.110Z,100.00
2022-10-18T19:34:16.144Z,100.00
2022-10-18T19:36:46.913Z,100.00
2022-10-18T19:39:18.189Z,100.00
2022-10-18T19:41:49.251Z,100.00
2022-10-18T19:44:19.243Z,100.00
2022-10-18T19:46:48.310Z,100.00
2022-10-18T19:49:16.922Z,100.00
2022-10-18T19:51:45.058Z,100.00
2022-10-18T19:54:14.194Z,100.00
2022-10-18T19:56:42.697Z,100.00
2022-10-18T19:59:14.537Z,100.00
2022-10-18T20:01:42.672Z,100.00
2022-10-18T20:04:12.741Z,100.00
2022-10-18T20:06:42.056Z,100.00
2022-10-18T20:09:16.152Z,100.00
2022-10-18T20:11:47.525Z,100.00
2022-10-18T20:14:16.822Z,100.00
2022-10-18T20:16:44.829Z,100.00
2022-10-18T20:19:12.830Z,100.00
2022-10-18T20:21:40.833Z,100.00
2022-10-18T20:24:10.267Z,100.00
2022-10-18T20:26:39.499Z,100.00
2022-10-18T20:29:08.150Z,100.00
2022-10-18T20:31:39.067Z,100.00
2022-10-18T20:34:11.460Z,100.00
2022-10-18T20:36:40.860Z,100.00
2022-10-18T20:39:09.485Z,100.00
2022-10-18T20:41:40.963Z,100.00
2022-10-18T20:44:14.523Z,100.00
2022-10-18T20:46:44.986Z,100.00
2022-10-18T20:49:15.957Z,100.00
2022-10-18T20:51:43.979Z,100.00
2022-10-18T20:54:12.545Z,100.00
2022-10-18T20:56:40.812Z,100.00
2022-10-18T20:59:10.127Z,100.00
2022-10-18T21:01:40.557Z,100.00
2022-10-18T21:04:11.472Z,100.00
2022-10-18T21:06:42.508Z,100.00
2022-10-18T21:09:14.141Z,100.00
2022-10-18T21:11:46.775Z,100.00
2022-10-18T21:14:17.461Z,100.00
2022-10-18T21:16:46.466Z,100.00
2022-10-18T21:19:18.001Z,100.00
2022-10-18T21:21:49.530Z,100.00
2022-10-18T21:24:18.729Z,100.00
2022-10-18T21:26:47.686Z,100.00
2022-10-18T21:29:20.905Z,100.00
2022-10-18T21:31:50.143Z,100.00
2022-10-18T21:34:19.467Z,100.00
2022-10-18T21:36:48.946Z,100.00
2022-10-18T21:39:19.616Z,100.00
2022-10-18T21:41:48.606Z,100.00
2022-10-18T21:44:17.458Z,100.00
2022-10-18T21:46:46.707Z,100.00
2022-10-18T21:49:16.197Z,100.00
2022-10-18T21:51:46.076Z,100.00
2022-10-18T21:54:16.384Z,100.00
2022-10-18T21:56:44.831Z,100.00
2022-10-18T21:59:14.298Z,100.00
2022-10-18T22:01:44.108Z,100.00
2022-10-18T22:04:21.296Z,100.00
2022-10-18T22:06:51.757Z,100.00
2022-10-18T22:09:21.083Z,100.00
2022-10-18T22:11:52.722Z,100.00
2022-10-18T22:14:20.814Z,100.00
2022-10-18T22:16:49.215Z,100.00
2022-10-18T22:19:17.584Z,99.63
2022-10-18T22:21:45.578Z,99.35
2022-10-18T22:24:15.220Z,99.20
2022-10-18T22:26:45.477Z,99.29
2022-10-18T22:29:16.650Z,99.05
2022-10-18T22:31:48.272Z,99.14
2022-10-18T22:34:19.686Z,99.26
2022-10-18T22:36:48.252Z,99.17
2022-10-18T22:39:18.598Z,99.24
2022-10-18T22:41:47.193Z,99.25
2022-10-18T22:44:16.048Z,99.25
2022-10-18T22:46:44.224Z,99.34
2022-10-18T22:49:13.277Z,99.01
2022-10-18T22:51:41.596Z,99.29
2022-10-18T22:54:09.789Z,99.41
2022-10-18T22:56:39.223Z,99.12
2022-10-18T22:59:07.276Z,98.81
2022-10-18T23:01:35.301Z,98.68
2022-10-18T23:04:04.740Z,98.12
2022-10-18T23:06:35.317Z,98.16
2022-10-18T23:09:07.286Z,97.98
2022-10-18T23:11:38.626Z,97.78
2022-10-18T23:14:07.784Z,97.49
2022-10-18T23:16:36.530Z,96.99
2022-10-18T23:19:05.612Z,96.96
2022-10-18T23:21:35.784Z,97.06
2022-10-18T23:24:04.263Z,97.41
2022-10-18T23:26:34.248Z,97.57
2022-10-18T23:29:04.037Z,97.97
2022-10-18T23:31:34.215Z,98.37
2022-10-18T23:34:05.914Z,98.64
2022-10-18T23:36:34.819Z,98.74
2022-10-18T23:39:03.799Z,98.38
2022-10-18T23:41:31.936Z,98.17
2022-10-18T23:43:59.997Z,97.64
2022-10-18T23:46:29.508Z,97.48
2022-10-18T23:48:57.521Z,97.37
2022-10-18T23:51:25.559Z,96.99
2022-10-18T23:53:53.559Z,96.87
2022-10-18T23:56:21.575Z,96.92
2022-10-18T23:58:49.527Z,96.61
